sensor_id;sensor_type;location;lat;lon;timestamp;pressure;altitude;pressure_sealevel;temperature;humidity
12881;BME280;6508;53.786;9.996;2024-03-23T00:54:10;100371.50;;;4.84;100.00
12881;BME280;6508;53.786;9.996;2024-03-23T00:56:37;100379.38;;;4.80;100.00
12881;BME280;6508;53.786;9.996;2024-03-23T00:59:03;100366.97;;;4.74;100.00
12881;BME280;6508;53.786;9.996;2024-03-23T01:01:30;100371.78;;;4.83;100.00
12881;BME280;6508;53.786;9.996;2024-03-23T01:03:56;100367.78;;;4.75;100.00
12881;BME280;6508;53.786;9.996;2024-03-23T01:06:23;100364.78;;;4.76;100.00
12881;BME280;6508;53.786;9.996;2024-03-23T01:08:49;100358.78;;;4.85;100.00
12881;BME280;6508;53.786;9.996;2024-03-23T01:11:17;100353.44;;;4.79;100.00
12881;BME280;6508;53.786;9.996;2024-03-23T01:13:43;100345.13;;;4.71;100.00
12881;BME280;6508;53.786;9.996;2024-03-23T01:16:10;100336.53;;;4.64;100.00
12881;BME280;6508;53.786;9.996;2024-03-23T01:18:36;100347.81;;;4.71;100.00
12881;BME280;6508;53.786;9.996;2024-03-23T01:21:03;100342.16;;;4.67;100.00
12881;BME280;6508;53.786;9.996;2024-03-23T01:23:29;100331.88;;;4.69;100.00
12881;BME280;6508;53.786;9.996;2024-03-23T01:25:57;100319.53;;;4.58;100.00
12881;BME280;6508;53.786;9.996;2024-03-23T01:28:24;100319.16;;;4.70;100.00
12881;BME280;6508;53.786;9.996;2024-03-23T01:30:51;100320.56;;;4.62;100.00
12881;BME280;6508;53.786;9.996;2024-03-23T01:33:17;100310.84;;;4.61;100.00
12881;BME280;6508;53.786;9.996;2024-03-23T01:35:44;100309.53;;;4.59;100.00
12881;BME280;6508;53.786;9.996;2024-03-23T01:38:10;100313.09;;;4.54;100.00
12881;BME280;6508;53.786;9.996;2024-03-23T01:40:37;100304.69;;;4.56;100.00
12881;BME280;6508;53.786;9.996;2024-03-23T01:43:04;100302.81;;;4.51;100.00
12881;BME280;6508;53.786;9.996;2024-03-23T01:45:33;100306.59;;;4.50;100.00
12881;BME280;6508;53.786;9.996;2024-03-23T01:47:59;100317.19;;;4.46;100.00
12881;BME280;6508;53.786;9.996;2024-03-23T01:50:27;100304.75;;;4.45;100.00
12881;BME280;6508;53.786;9.996;2024-03-23T01:52:53;100297.81;;;4.34;100.00
12881;BME280;6508;53.786;9.996;2024-03-23T01:55:21;100294.06;;;4.30;100.00
12881;BME280;6508;53.786;9.996;2024-03-23T01:57:48;100287.00;;;4.34;100.00
12881;BME280;6508;53.786;9.996;2024-03-23T02:00:16;100284.81;;;4.36;100.00
12881;BME280;6508;53.786;9.996;2024-03-23T02:02:47;100283.78;;;4.32;100.00
12881;BME280;6508;53.786;9.996;2024-03-23T02:05:14;100275.41;;;4.29;100.00
12881;BME280;6508;53.786;9.996;2024-03-23T02:07:42;100271.66;;;4.30;100.00
12881;BME280;6508;53.786;9.996;2024-03-23T02:10:10;100270.88;;;4.24;100.00
12881;BME280;6508;53.786;9.996;2024-03-23T02:12:39;100278.75;;;4.15;100.00
12881;BME280;6508;53.786;9.996;2024-03-23T02:15:06;100273.06;;;4.17;100.00
12881;BME280;6508;53.786;9.996;2024-03-23T02:17:35;100266.28;;;4.19;100.00
12881;BME280;6508;53.786;9.996;2024-03-23T02:20:04;100262.56;;;4.15;100.00
12881;BME280;6508;53.786;9.996;2024-03-23T02:22:36;100267.66;;;4.17;100.00
12881;BME280;6508;53.786;9.996;2024-03-23T02:25:06;100265.50;;;4.19;100.00
12881;BME280;6508;53.786;9.996;2024-03-23T02:27:32;100255.78;;;4.18;100.00
12881;BME280;6508;53.786;9.996;2024-03-23T02:30:00;100255.78;;;4.18;100.00
12881;BME280;6508;53.786;9.996;2024-03-23T02:32:26;100248.25;;;4.15;100.00
12881;BME280;6508;53.786;9.996;2024-03-23T02:34:53;100254.16;;;4.17;100.00
12881;BME280;6508;53.786;9.996;2024-03-23T02:37:20;100244.97;;;4.18;100.00
12881;BME280;6508;53.786;9.996;2024-03-23T02:39:47;100246.13;;;4.07;100.00
12881;BME280;6508;53.786;9.996;2024-03-23T02:42:14;100247.31;;;3.95;100.00
12881;BME280;6508;53.786;9.996;2024-03-23T02:44:44;100238.72;;;3.83;100.00
12881;BME280;6508;53.786;9.996;2024-03-23T02:47:10;100247.34;;;3.85;100.00
12881;BME280;6508;53.786;9.996;2024-03-23T02:49:37;100242.72;;;3.96;100.00
12881;BME280;6508;53.786;9.996;2024-03-23T02:52:03;100232.75;;;3.86;100.00
12881;BME280;6508;53.786;9.996;2024-03-23T02:54:31;100229.59;;;3.74;100.00
12881;BME280;6508;53.786;9.996;2024-03-23T02:56:57;100237.69;;;3.69;100.00
12881;BME280;6508;53.786;9.996;2024-03-23T02:59:25;100232.81;;;3.76;100.00
12881;BME280;6508;53.786;9.996;2024-03-23T03:01:51;100229.03;;;3.77;100.00
12881;BME280;6508;53.786;9.996;2024-03-23T03:04:18;100227.91;;;3.83;100.00
12881;BME280;6508;53.786;9.996;2024-03-23T03:06:46;100222.50;;;3.88;100.00
12881;BME280;6508;53.786;9.996;2024-03-23T03:09:13;100210.84;;;3.93;100.00
12881;BME280;6508;53.786;9.996;2024-03-23T03:11:39;100209.22;;;3.97;100.00
12881;BME280;6508;53.786;9.996;2024-03-23T03:14:06;100206.03;;;3.90;100.00
12881;BME280;6508;53.786;9.996;2024-03-23T03:16:34;100203.56;;;3.93;100.00
12881;BME280;6508;53.786;9.996;2024-03-23T03:19:01;100203.56;;;3.93;100.00
12881;BME280;6508;53.786;9.996;2024-03-23T03:21:27;100196.59;;;3.87;100.00
12881;BME280;6508;53.786;9.996;2024-03-23T03:23:54;100189.09;;;3.79;100.00
12881;BME280;6508;53.786;9.996;2024-03-23T03:26:22;100197.41;;;3.88;100.00
12881;BME280;6508;53.786;9.996;2024-03-23T03:28:49;100199.31;;;3.82;100.00
12881;BME280;6508;53.786;9.996;2024-03-23T03:31:15;100198.22;;;3.83;100.00
12881;BME280;6508;53.786;9.996;2024-03-23T03:33:44;100189.63;;;3.76;100.00
12881;BME280;6508;53.786;9.996;2024-03-23T03:36:10;100189.34;;;3.78;100.00
12881;BME280;6508;53.786;9.996;2024-03-23T03:38:38;100184.22;;;3.76;100.00
12881;BME280;6508;53.786;9.996;2024-03-23T03:41:04;100175.06;;;3.77;100.00
12881;BME280;6508;53.786;9.996;2024-03-23T03:43:31;100184.22;;;3.76;100.00
12881;BME280;6508;53.786;9.996;2024-03-23T03:45:59;100178.84;;;3.76;100.00
12881;BME280;6508;53.786;9.996;2024-03-23T03:48:26;100175.06;;;3.77;100.00
12881;BME280;6508;53.786;9.996;2024-03-23T03:50:54;100168.91;;;3.72;100.00
12881;BME280;6508;53.786;9.996;2024-03-23T03:53:21;100162.66;;;3.76;100.00
12881;BME280;6508;53.786;9.996;2024-03-23T03:55:46;100161.03;;;3.75;100.00
12881;BME280;6508;53.786;9.996;2024-03-23T03:58:13;100166.16;;;3.77;100.00
12881;BME280;6508;53.786;9.996;2024-03-23T04:00:39;100158.84;;;3.77;100.00
12881;BME280;6508;53.786;9.996;2024-03-23T04:03:06;100144.31;;;3.73;100.00
12881;BME280;6508;53.786;9.996;2024-03-23T04:05:32;100135.13;;;3.74;100.00
12881;BME280;6508;53.786;9.996;2024-03-23T04:08:00;100140.25;;;3.76;100.00
12881;BME280;6508;53.786;9.996;2024-03-23T04:10:26;100142.41;;;3.79;100.00
12881;BME280;6508;53.786;9.996;2024-03-23T04:12:53;100145.91;;;3.79;100.00
12881;BME280;6508;53.786;9.996;2024-03-23T04:15:20;100144.56;;;3.77;100.00
12881;BME280;6508;53.786;9.996;2024-03-23T04:17:47;100139.22;;;3.72;100.00
12881;BME280;6508;53.786;9.996;2024-03-23T04:20:13;100131.41;;;3.70;100.00
12881;BME280;6508;53.786;9.996;2024-03-23T04:22:43;100143.53;;;3.67;100.00
12881;BME280;6508;53.786;9.996;2024-03-23T04:25:10;100141.72;;;3.58;100.00
12881;BME280;6508;53.786;9.996;2024-03-23T04:27:37;100136.84;;;3.60;100.00
12881;BME280;6508;53.786;9.996;2024-03-23T04:30:05;100140.94;;;3.52;100.00
12881;BME280;6508;53.786;9.996;2024-03-23T04:32:35;100136.09;;;3.54;100.00
12881;BME280;6508;53.786;9.996;2024-03-23T04:35:01;100124.50;;;3.49;100.00
12881;BME280;6508;53.786;9.996;2024-03-23T04:37:31;100115.81;;;3.57;100.00
12881;BME280;6508;53.786;9.996;2024-03-23T04:40:00;100111.25;;;3.57;100.00
12881;BME280;6508;53.786;9.996;2024-03-23T04:42:28;100126.91;;;3.55;100.00
12881;BME280;6508;53.786;9.996;2024-03-23T04:44:55;100130.16;;;3.52;100.00
12881;BME280;6508;53.786;9.996;2024-03-23T04:47:23;100136.91;;;3.50;100.00
12881;BME280;6508;53.786;9.996;2024-03-23T04:49:50;100132.03;;;3.52;100.00
12881;BME280;6508;53.786;9.996;2024-03-23T04:52:17;100133.44;;;3.44;100.00
12881;BME280;6508;53.786;9.996;2024-03-23T04:54:44;100129.09;;;3.48;100.00
12881;BME280;6508;53.786;9.996;2024-03-23T04:57:12;100142.31;;;3.50;100.00
12881;BME280;6508;53.786;9.996;2024-03-23T04:59:48;100140.41;;;3.55;100.00
12881;BME280;6508;53.786;9.996;2024-03-23T05:02:15;100140.13;;;3.52;100.00
12881;BME280;6508;53.786;9.996;2024-03-23T05:04:41;100135.28;;;3.54;100.00
12881;BME280;6508;53.786;9.996;2024-03-23T05:07:09;100128.81;;;3.50;100.00
12881;BME280;6508;53.786;9.996;2024-03-23T05:09:34;100127.72;;;3.51;100.00
12881;BME280;6508;53.786;9.996;2024-03-23T05:12:02;100119.63;;;3.56;100.00
12881;BME280;6508;53.786;9.996;2024-03-23T05:14:28;100112.63;;;3.55;100.00
12881;BME280;6508;53.786;9.996;2024-03-23T05:16:56;100108.81;;;3.56;100.00
12881;BME280;6508;53.786;9.996;2024-03-23T05:19:22;100117.97;;;3.60;100.00
12881;BME280;6508;53.786;9.996;2024-03-23T05:21:49;100114.16;;;3.66;100.00
12881;BME280;6508;53.786;9.996;2024-03-23T05:24:15;100110.34;;;3.67;100.00
12881;BME280;6508;53.786;9.996;2024-03-23T05:26:42;100106.13;;;3.56;100.00
12881;BME280;6508;53.786;9.996;2024-03-23T05:29:08;100106.06;;;3.61;100.00
12881;BME280;6508;53.786;9.996;2024-03-23T05:31:36;100102.31;;;3.62;100.00
12881;BME280;6508;53.786;9.996;2024-03-23T05:34:04;100108.75;;;3.66;100.00
12881;BME280;6508;53.786;9.996;2024-03-23T05:36:31;100106.56;;;3.68;100.00
12881;BME280;6508;53.786;9.996;2024-03-23T05:38:58;100100.66;;;3.66;100.00
12881;BME280;6508;53.786;9.996;2024-03-23T05:41:25;100095.78;;;3.68;100.00
12881;BME280;6508;53.786;9.996;2024-03-23T05:43:50;100101.66;;;3.75;100.00
12881;BME280;6508;53.786;9.996;2024-03-23T05:46:17;100106.53;;;3.73;100.00
12881;BME280;6508;53.786;9.996;2024-03-23T05:48:43;100104.63;;;3.79;100.00
12881;BME280;6508;53.786;9.996;2024-03-23T05:51:11;100107.84;;;3.81;100.00
12881;BME280;6508;53.786;9.996;2024-03-23T05:53:39;100104.88;;;3.77;100.00
12881;BME280;6508;53.786;9.996;2024-03-23T05:56:06;100094.34;;;3.81;100.00
12881;BME280;6508;53.786;9.996;2024-03-23T05:58:32;100092.94;;;3.88;100.00
12881;BME280;6508;53.786;9.996;2024-03-23T06:01:00;100089.44;;;3.88;100.00
12881;BME280;6508;53.786;9.996;2024-03-23T06:03:27;100091.34;;;3.82;100.00
12881;BME280;6508;53.786;9.996;2024-03-23T06:05:55;100086.63;;;3.98;100.00
12881;BME280;6508;53.786;9.996;2024-03-23T06:08:22;100083.75;;;3.89;100.00
12881;BME280;6508;53.786;9.996;2024-03-23T06:10:50;100088.53;;;3.98;100.00
12881;BME280;6508;53.786;9.996;2024-03-23T06:13:17;100086.13;;;3.96;100.00
12881;BME280;6508;53.786;9.996;2024-03-23T06:15:45;100085.31;;;3.95;100.00
12881;BME280;6508;53.786;9.996;2024-03-23T06:18:12;100084.78;;;3.93;100.00
12881;BME280;6508;53.786;9.996;2024-03-23T06:20:39;100075.66;;;3.89;100.00
12881;BME280;6508;53.786;9.996;2024-03-23T06:23:05;100079.63;;;3.97;100.00
12881;BME280;6508;53.786;9.996;2024-03-23T06:25:33;100076.03;;;4.07;100.00
12881;BME280;6508;53.786;9.996;2024-03-23T06:27:59;100073.84;;;4.09;100.00
12881;BME280;6508;53.786;9.996;2024-03-23T06:30:27;100075.41;;;4.15;100.00
12881;BME280;6508;53.786;9.996;2024-03-23T06:32:53;100080.53;;;4.16;100.00
12881;BME280;6508;53.786;9.996;2024-03-23T06:35:20;100070.50;;;4.22;100.00
12881;BME280;6508;53.786;9.996;2024-03-23T06:37:47;100070.63;;;4.07;100.00
12881;BME280;6508;53.786;9.996;2024-03-23T06:40:14;100080.84;;;4.10;100.00
12881;BME280;6508;53.786;9.996;2024-03-23T06:42:41;100074.28;;;4.21;100.00
12881;BME280;6508;53.786;9.996;2024-03-23T06:45:09;100068.13;;;4.15;100.00
12881;BME280;6508;53.786;9.996;2024-03-23T06:47:35;100076.09;;;4.26;100.00
12881;BME280;6508;53.786;9.996;2024-03-23T06:50:03;100070.41;;;4.27;100.00
12881;BME280;6508;53.786;9.996;2024-03-23T06:52:30;100071.13;;;4.38;100.00
12881;BME280;6508;53.786;9.996;2024-03-23T06:54:57;100064.81;;;4.47;100.00
12881;BME280;6508;53.786;9.996;2024-03-23T06:57:23;100063.22;;;4.46;100.00
12881;BME280;6508;53.786;9.996;2024-03-23T06:59:52;100051.81;;;4.49;100.00
12881;BME280;6508;53.786;9.996;2024-03-23T07:02:18;100054.81;;;4.48;100.00
12881;BME280;6508;53.786;9.996;2024-03-23T07:04:45;100054.41;;;4.60;100.00
12881;BME280;6508;53.786;9.996;2024-03-23T07:07:11;100057.03;;;5.07;100.00
12881;BME280;6508;53.786;9.996;2024-03-23T07:09:39;100056.19;;;5.31;100.00
12881;BME280;6508;53.786;9.996;2024-03-23T07:12:06;100060.69;;;5.17;100.00
12881;BME280;6508;53.786;9.996;2024-03-23T07:14:33;100049.00;;;5.40;100.00
12881;BME280;6508;53.786;9.996;2024-03-23T07:17:01;100057.50;;;5.85;100.00
12881;BME280;6508;53.786;9.996;2024-03-23T07:19:28;100047.97;;;6.20;100.00
12881;BME280;6508;53.786;9.996;2024-03-23T07:21:54;100051.66;;;6.10;100.00
12881;BME280;6508;53.786;9.996;2024-03-23T07:24:21;100036.44;;;6.14;100.00
12881;BME280;6508;53.786;9.996;2024-03-23T07:26:46;100041.38;;;6.67;100.00
12881;BME280;6508;53.786;9.996;2024-03-23T07:29:14;100032.94;;;6.69;100.00
12881;BME280;6508;53.786;9.996;2024-03-23T07:31:40;100032.03;;;6.73;100.00
12881;BME280;6508;53.786;9.996;2024-03-23T07:34:08;100032.03;;;6.32;100.00
12881;BME280;6508;53.786;9.996;2024-03-23T07:36:34;100032.03;;;6.32;100.00
12881;BME280;6508;53.786;9.996;2024-03-23T07:39:02;100032.75;;;7.15;100.00
12881;BME280;6508;53.786;9.996;2024-03-23T07:41:28;100028.44;;;7.37;100.00
12881;BME280;6508;53.786;9.996;2024-03-23T07:43:56;100021.50;;;7.67;100.00
12881;BME280;6508;53.786;9.996;2024-03-23T07:46:22;100022.16;;;7.95;100.00
12881;BME280;6508;53.786;9.996;2024-03-23T07:48:50;100014.63;;;8.31;100.00
12881;BME280;6508;53.786;9.996;2024-03-23T07:51:20;100013.03;;;8.30;100.00
12881;BME280;6508;53.786;9.996;2024-03-23T07:53:48;100012.19;;;8.52;100.00
12881;BME280;6508;53.786;9.996;2024-03-23T07:56:15;100012.63;;;8.94;100.00
12881;BME280;6508;53.786;9.996;2024-03-23T07:58:44;100008.63;;;9.00;100.00
12881;BME280;6508;53.786;9.996;2024-03-23T08:01:11;100010.81;;;8.72;100.00
12881;BME280;6508;53.786;9.996;2024-03-23T08:03:40;100004.63;;;8.40;100.00
12881;BME280;6508;53.786;9.996;2024-03-23T08:06:08;100006.34;;;8.85;100.00
12881;BME280;6508;53.786;9.996;2024-03-23T08:08:36;100000.13;;;9.01;100.00
12881;BME280;6508;53.786;9.996;2024-03-23T08:11:03;100003.34;;;9.21;100.00
12881;BME280;6508;53.786;9.996;2024-03-23T08:13:30;99990.84;;;9.54;100.00
12881;BME280;6508;53.786;9.996;2024-03-23T08:15:57;99996.75;;;9.56;100.00
12881;BME280;6508;53.786;9.996;2024-03-23T08:18:24;99993.97;;;10.38;100.00
12881;BME280;6508;53.786;9.996;2024-03-23T08:20:57;99996.34;;;10.01;100.00
12881;BME280;6508;53.786;9.996;2024-03-23T08:23:24;99988.28;;;9.32;100.00
12881;BME280;6508;53.786;9.996;2024-03-23T08:25:52;99982.22;;;9.18;100.00
12881;BME280;6508;53.786;9.996;2024-03-23T08:28:23;99981.66;;;9.76;100.00
12881;BME280;6508;53.786;9.996;2024-03-23T08:30:50;99979.59;;;10.58;100.00
12881;BME280;6508;53.786;9.996;2024-03-23T08:33:17;99973.00;;;10.59;100.00
12881;BME280;6508;53.786;9.996;2024-03-23T08:35:53;99963.94;;;11.51;100.00
12881;BME280;6508;53.786;9.996;2024-03-23T08:38:20;99970.34;;;11.34;100.00
12881;BME280;6508;53.786;9.996;2024-03-23T08:40:46;99967.25;;;10.82;100.00
12881;BME280;6508;53.786;9.996;2024-03-23T08:43:14;99958.13;;;10.19;100.00
12881;BME280;6508;53.786;9.996;2024-03-23T08:45:40;99966.75;;;9.74;100.00
12881;BME280;6508;53.786;9.996;2024-03-23T08:48:07;99962.69;;;9.97;100.00
12881;BME280;6508;53.786;9.996;2024-03-23T08:50:33;99958.91;;;10.57;100.00
12881;BME280;6508;53.786;9.996;2024-03-23T08:53:00;99948.09;;;11.11;100.00
12881;BME280;6508;53.786;9.996;2024-03-23T08:55:26;99944.59;;;11.44;100.00
12881;BME280;6508;53.786;9.996;2024-03-23T08:57:53;99950.00;;;10.69;100.00
12881;BME280;6508;53.786;9.996;2024-03-23T09:00:21;99951.09;;;9.62;100.00
12881;BME280;6508;53.786;9.996;2024-03-23T09:02:48;99946.31;;;8.81;100.00
12881;BME280;6508;53.786;9.996;2024-03-23T09:05:15;99948.38;;;10.00;100.00
12881;BME280;6508;53.786;9.996;2024-03-23T09:07:41;99945.06;;;9.22;100.00
12881;BME280;6508;53.786;9.996;2024-03-23T09:10:08;99947.94;;;9.34;100.00
12881;BME280;6508;53.786;9.996;2024-03-23T09:12:35;99939.78;;;9.25;100.00
12881;BME280;6508;53.786;9.996;2024-03-23T09:15:00;99940.81;;;9.68;100.00
12881;BME280;6508;53.786;9.996;2024-03-23T09:17:30;99946.97;;;8.87;100.00
12881;BME280;6508;53.786;9.996;2024-03-23T09:19:56;99941.53;;;8.69;100.00
12881;BME280;6508;53.786;9.996;2024-03-23T09:22:23;99949.38;;;8.31;100.00
12881;BME280;6508;53.786;9.996;2024-03-23T09:24:49;99945.81;;;8.13;100.00
12881;BME280;6508;53.786;9.996;2024-03-23T09:27:16;99949.34;;;8.14;100.00
12881;BME280;6508;53.786;9.996;2024-03-23T09:29:44;99942.97;;;9.27;100.00
12881;BME280;6508;53.786;9.996;2024-03-23T09:32:10;99943.53;;;10.14;100.00
12881;BME280;6508;53.786;9.996;2024-03-23T09:34:39;99942.66;;;9.03;100.00
12881;BME280;6508;53.786;9.996;2024-03-23T09:37:05;99931.31;;;8.92;100.00
12881;BME280;6508;53.786;9.996;2024-03-23T09:39:32;99941.53;;;8.95;100.00
12881;BME280;6508;53.786;9.996;2024-03-23T09:41:58;99929.66;;;8.74;100.00
12881;BME280;6508;53.786;9.996;2024-03-23T09:44:25;99937.56;;;9.83;100.00
12881;BME280;6508;53.786;9.996;2024-03-23T09:46:51;99932.91;;;9.11;100.00
12881;BME280;6508;53.786;9.996;2024-03-23T09:49:18;99929.84;;;8.60;100.00
12881;BME280;6508;53.786;9.996;2024-03-23T09:51:46;99924.06;;;8.70;100.00
12881;BME280;6508;53.786;9.996;2024-03-23T09:54:13;99927.38;;;9.63;100.00
12881;BME280;6508;53.786;9.996;2024-03-23T09:56:39;99932.91;;;9.11;100.00
12881;BME280;6508;53.786;9.996;2024-03-23T09:59:05;99942.19;;;8.75;100.00
12881;BME280;6508;53.786;9.996;2024-03-23T10:01:32;99927.88;;;8.43;100.00
12881;BME280;6508;53.786;9.996;2024-03-23T10:03:59;99933.38;;;8.21;100.00
12881;BME280;6508;53.786;9.996;2024-03-23T10:06:25;99938.88;;;7.99;100.00
12881;BME280;6508;53.786;9.996;2024-03-23T10:08:53;99935.63;;;8.76;100.00
12881;BME280;6508;53.786;9.996;2024-03-23T10:11:21;99918.81;;;8.91;100.00
12881;BME280;6508;53.786;9.996;2024-03-23T10:13:48;99926.00;;;8.79;100.00
12881;BME280;6508;53.786;9.996;2024-03-23T10:16:21;99920.78;;;8.25;100.00
12881;BME280;6508;53.786;9.996;2024-03-23T10:18:49;99912.22;;;8.01;100.00
12881;BME280;6508;53.786;9.996;2024-03-23T10:21:16;99915.69;;;7.93;100.00
12881;BME280;6508;53.786;9.996;2024-03-23T10:23:44;99921.81;;;8.64;100.00
12881;BME280;6508;53.786;9.996;2024-03-23T10:26:17;99926.31;;;8.68;100.00
12881;BME280;6508;53.786;9.996;2024-03-23T10:28:52;99919.56;;;8.66;100.00
12881;BME280;6508;53.786;9.996;2024-03-23T10:31:18;99914.88;;;10.38;100.00
12881;BME280;6508;53.786;9.996;2024-03-23T10:33:46;99914.47;;;11.32;100.00
12881;BME280;6508;53.786;9.996;2024-03-23T10:36:12;99905.44;;;12.22;100.00
12881;BME280;6508;53.786;9.996;2024-03-23T10:38:40;99893.81;;;12.77;100.00
12881;BME280;6508;53.786;9.996;2024-03-23T10:41:08;99902.91;;;12.04;100.00
12881;BME280;6508;53.786;9.996;2024-03-23T10:43:38;99902.91;;;11.47;100.00
12881;BME280;6508;53.786;9.996;2024-03-23T10:46:04;99903.38;;;11.49;100.00
12881;BME280;6508;53.786;9.996;2024-03-23T10:48:32;99894.63;;;11.55;100.00
12881;BME280;6508;53.786;9.996;2024-03-23T10:50:58;99887.88;;;11.98;100.00
12881;BME280;6508;53.786;9.996;2024-03-23T10:53:26;99888.53;;;10.42;100.00
12881;BME280;6508;53.786;9.996;2024-03-23T10:55:54;99890.13;;;9.20;100.00
12881;BME280;6508;53.786;9.996;2024-03-23T10:58:24;99908.53;;;8.54;100.00
12881;BME280;6508;53.786;9.996;2024-03-23T11:00:52;99899.34;;;8.32;100.00
12881;BME280;6508;53.786;9.996;2024-03-23T11:03:34;99896.47;;;8.29;100.00
12881;BME280;6508;53.786;9.996;2024-03-23T11:06:02;99888.94;;;8.17;100.00
12881;BME280;6508;53.786;9.996;2024-03-23T11:08:31;99891.59;;;8.00;100.00
12881;BME280;6508;53.786;9.996;2024-03-23T11:11:17;99900.94;;;7.76;100.00
12881;BME280;6508;53.786;9.996;2024-03-23T11:13:47;99884.41;;;8.69;100.00
12881;BME280;6508;53.786;9.996;2024-03-23T11:16:16;99887.56;;;10.88;100.00
12881;BME280;6508;53.786;9.996;2024-03-23T11:18:43;99887.97;;;11.90;100.00
12881;BME280;6508;53.786;9.996;2024-03-23T11:21:10;99890.19;;;12.73;100.00
12881;BME280;6508;53.786;9.996;2024-03-23T11:23:37;99920.50;;;10.62;100.00
12881;BME280;6508;53.786;9.996;2024-03-23T11:26:07;99914.59;;;8.42;100.00
12881;BME280;6508;53.786;9.996;2024-03-23T11:28:34;99913.44;;;7.55;100.00
12881;BME280;6508;53.786;9.996;2024-03-23T11:31:00;99909.78;;;6.84;100.00
12881;BME280;6508;53.786;9.996;2024-03-23T11:33:28;99909.44;;;6.85;100.00
12881;BME280;6508;53.786;9.996;2024-03-23T11:35:54;99908.97;;;7.05;100.00
12881;BME280;6508;53.786;9.996;2024-03-23T11:38:22;99909.03;;;6.92;100.00
12881;BME280;6508;53.786;9.996;2024-03-23T11:40:49;99897.38;;;7.36;100.00
12881;BME280;6508;53.786;9.996;2024-03-23T11:43:17;99907.09;;;8.73;100.00
12881;BME280;6508;53.786;9.996;2024-03-23T11:45:45;99891.84;;;9.33;100.00
12881;BME280;6508;53.786;9.996;2024-03-23T11:48:14;99891.38;;;9.31;100.00
12881;BME280;6508;53.786;9.996;2024-03-23T11:50:43;99893.09;;;8.32;100.00
12881;BME280;6508;53.786;9.996;2024-03-23T11:53:14;99890.78;;;7.90;100.00
12881;BME280;6508;53.786;9.996;2024-03-23T11:55:46;99901.81;;;7.32;100.00
12881;BME280;6508;53.786;9.996;2024-03-23T11:58:14;99905.31;;;6.65;100.00
12881;BME280;6508;53.786;9.996;2024-03-23T12:00:40;99907.38;;;6.32;100.00
12881;BME280;6508;53.786;9.996;2024-03-23T12:03:07;99910.63;;;6.07;100.00
12881;BME280;6508;53.786;9.996;2024-03-23T12:05:34;99908.56;;;5.85;100.00
12881;BME280;6508;53.786;9.996;2024-03-23T12:08:22;99916.19;;;5.83;100.00
12881;BME280;6508;53.786;9.996;2024-03-23T12:10:49;99908.06;;;5.83;100.00
12881;BME280;6508;53.786;9.996;2024-03-23T12:13:18;99915.78;;;5.89;100.00
12881;BME280;6508;53.786;9.996;2024-03-23T12:15:45;99905.69;;;6.95;100.00
12881;BME280;6508;53.786;9.996;2024-03-23T12:18:12;99900.72;;;8.04;100.00
12881;BME280;6508;53.786;9.996;2024-03-23T12:20:39;99896.63;;;8.32;100.00
12881;BME280;6508;53.786;9.996;2024-03-23T12:23:07;99895.28;;;8.69;100.00
12881;BME280;6508;53.786;9.996;2024-03-23T12:25:36;99896.47;;;9.41;100.00
12881;BME280;6508;53.786;9.996;2024-03-23T12:28:03;99900.31;;;9.96;100.00
12881;BME280;6508;53.786;9.996;2024-03-23T12:30:33;99905.22;;;10.11;100.00
12881;BME280;6508;53.786;9.996;2024-03-23T12:33:00;99894.63;;;9.80;100.00
12881;BME280;6508;53.786;9.996;2024-03-23T12:35:26;99920.41;;;9.27;100.00
12881;BME280;6508;53.786;9.996;2024-03-23T12:37:53;99901.59;;;7.82;100.00
12881;BME280;6508;53.786;9.996;2024-03-23T12:40:19;99914.59;;;7.09;100.00
12881;BME280;6508;53.786;9.996;2024-03-23T12:42:47;99913.97;;;7.12;100.00
12881;BME280;6508;53.786;9.996;2024-03-23T12:45:13;99906.19;;;7.19;100.00
12881;BME280;6508;53.786;9.996;2024-03-23T12:47:41;99909.41;;;6.99;100.00
12881;BME280;6508;53.786;9.996;2024-03-23T12:50:08;99914.81;;;6.76;100.00
12881;BME280;6508;53.786;9.996;2024-03-23T12:52:35;99906.69;;;6.63;100.00
12881;BME280;6508;53.786;9.996;2024-03-23T12:55:02;99906.53;;;6.59;100.00
12881;BME280;6508;53.786;9.996;2024-03-23T12:57:30;99892.28;;;6.54;100.00
12881;BME280;6508;53.786;9.996;2024-03-23T12:59:59;99899.03;;;6.78;100.00
12881;BME280;6508;53.786;9.996;2024-03-23T13:02:26;99894.97;;;7.34;100.00
12881;BME280;6508;53.786;9.996;2024-03-23T13:04:53;99887.91;;;7.96;100.00
12881;BME280;6508;53.786;9.996;2024-03-23T13:07:20;99892.53;;;8.35;100.00
12881;BME280;6508;53.786;9.996;2024-03-23T13:09:49;99890.91;;;8.34;100.00
12881;BME280;6508;53.786;9.996;2024-03-23T13:12:15;99893.00;;;8.37;100.00
12881;BME280;6508;53.786;9.996;2024-03-23T13:14:42;99892.88;;;8.51;100.00
12881;BME280;6508;53.786;9.996;2024-03-23T13:17:09;99888.28;;;8.20;100.00
12881;BME280;6508;53.786;9.996;2024-03-23T13:19:36;99887.66;;;8.23;100.00
12881;BME280;6508;53.786;9.996;2024-03-23T13:22:03;99929.22;;;7.75;100.00
12881;BME280;6508;53.786;9.996;2024-03-23T13:24:30;99949.44;;;6.16;100.00
12881;BME280;6508;53.786;9.996;2024-03-23T13:26:57;99938.34;;;4.49;100.00
12881;BME280;6508;53.786;9.996;2024-03-23T13:29:24;99956.66;;;4.10;100.00
12881;BME280;6508;53.786;9.996;2024-03-23T13:31:51;99951.38;;;4.00;100.00
12881;BME280;6508;53.786;9.996;2024-03-23T13:34:19;99965.63;;;4.05;100.00
12881;BME280;6508;53.786;9.996;2024-03-23T13:36:46;99973.53;;;3.97;100.00
12881;BME280;6508;53.786;9.996;2024-03-23T13:39:14;99960.72;;;3.83;100.00
12881;BME280;6508;53.786;9.996;2024-03-23T13:41:42;99924.25;;;4.10;100.00
12881;BME280;6508;53.786;9.996;2024-03-23T13:44:09;99918.44;;;5.16;100.00
12881;BME280;6508;53.786;9.996;2024-03-23T13:46:37;99916.53;;;5.62;100.00
12881;BME280;6508;53.786;9.996;2024-03-23T13:49:04;99925.97;;;5.51;100.00
12881;BME280;6508;53.786;9.996;2024-03-23T13:51:33;99932.09;;;5.57;100.00
12881;BME280;6508;53.786;9.996;2024-03-23T13:54:00;99931.50;;;5.60;100.00
12881;BME280;6508;53.786;9.996;2024-03-23T13:56:26;99921.09;;;5.67;100.00
12881;BME280;6508;53.786;9.996;2024-03-23T13:58:55;99920.19;;;5.85;100.00